Wrington, United Kingdom
Current Conditions -  °F | °C
As of 10:20 AM on Sunday 26 Oct 2014 (Local Time) from EGGD Reporting Station
Broken Clouds Broken Clouds  
Wind Chill: 12°   Ceiling: 2700
Heat Index: 12°   Visibility: 6mi
Dew Point:   Wind: 16mph
Humidity: 77%   Direction: 220°SW
Pressure: 30.12"   Gusts: NA
Location:  51.36°N, 2.76°W
Report Text: EGGD 260920Z 22014KT 9999 BKN027 12/08 Q1020
Loading
Personal Weather Stations






























Interactive Weather Map
Tropical Storm Tracking
New forecast layout! Learn more

10-Day Weather Forecast

Advertisements
Track Severe Weather on mobile